Niton, United Kingdom
Current Conditions -  °F | °C
As of 5:20 PM on Friday 19 Dec 2014 (Local Time) from EGHI Reporting Station
Clear Clear  
Wind Chill: 39°   Ceiling: Unl
Heat Index: 45°   Visibility: 6mi
Dew Point: 37°   Wind: 10mph
Humidity: 76%   Direction: 280°W
Pressure: 30.15"   Gusts: NA
Location:  50.59°N, 1.28°W
Report Text: EGHI 191720Z 28009KT CAVOK 07/03 Q1021
Loading
Personal Weather Stations






























Interactive Weather Map New forecast layout! Learn more

10-Day Weather Forecast

Advertisements
Track Severe Weather on mobile